Time;durP1;ratioP1;P1;durP2;ratioP2;P2;SDS_P1;SDS_P2;PMS_P1;PMS_P2;Temp;Humidity;BMP_temperature;BMP_pressure;BME280_temperature;BME280_humidity;BME280_pressure;Samples;Min_cycle;Max_cycle;Signal;HPM_P1;HPM_P2
2022/10/15 00:00:51;;;;;;;3.30;3.00;;;;;;;;;;5098889;28;20210;-64
2022/10/15 00:03:19;;;;;;;2.40;2.20;;;;;;;;;;5098488;28;20229;-64
2022/10/15 00:05:48;;;;;;;2.00;1.80;;;;;;;;;;5098769;28;20216;-64
2022/10/15 00:08:16;;;;;;;2.20;2.00;;;;;;;;;;5098743;28;20576;-64
2022/10/15 00:10:44;;;;;;;4.47;2.00;;;;;;;;;;5098706;28;20205;-64
2022/10/15 00:13:12;;;;;;;3.83;2.10;;;;;;;;;;5098533;28;20236;-64
2022/10/15 00:15:40;;;;;;;3.73;1.93;;;;;;;;;;5098476;28;20213;-64
2022/10/15 00:18:08;;;;;;;3.93;2.03;;;;;;;;;;5098285;28;20201;-64
2022/10/15 00:20:35;;;;;;;3.33;2.10;;;;;;;;;;5098469;28;20209;-64
2022/10/15 00:23:05;;;;;;;2.93;2.10;;;;;;;;;;5098133;28;20538;-64
2022/10/15 00:25:33;;;;;;;3.27;1.83;;;;;;;;;;5085071;28;20584;-64
2022/10/15 00:28:01;;;;;;;2.50;2.03;;;;;;;;;;5098124;28;20580;-64
2022/10/15 00:30:29;;;;;;;3.20;2.30;;;;;;;;;;5098425;28;20212;-64
2022/10/15 00:32:56;;;;;;;3.17;2.57;;;;;;;;;;5097921;28;20226;-64
2022/10/15 00:35:24;;;;;;;2.20;2.00;;;;;;;;;;5098088;28;20216;-64
2022/10/15 00:37:52;;;;;;;3.47;2.43;;;;;;;;;;5098165;28;20213;-64
2022/10/15 00:40:22;;;;;;;3.03;2.43;;;;;;;;;;5098286;28;20216;-64
2022/10/15 00:42:49;;;;;;;1.90;1.77;;;;;;;;;;5097402;28;20198;-64
2022/10/15 00:45:17;;;;;;;2.43;2.23;;;;;;;;;;5098110;28;20233;-64
2022/10/15 00:47:47;;;;;;;8.10;2.37;;;;;;;;;;5097537;28;20670;-64
2022/10/15 00:50:16;;;;;;;5.13;4.00;;;;;;;;;;5097899;28;20211;-64
2022/10/15 00:52:46;;;;;;;2.23;1.90;;;;;;;;;;5097730;28;20237;-64
2022/10/15 00:55:15;;;;;;;2.67;2.03;;;;;;;;;;5098141;28;20232;-64
2022/10/15 00:57:47;;;;;;;3.10;2.00;;;;;;;;;;5097786;28;20213;-64
2022/10/15 01:00:15;;;;;;;3.60;1.90;;;;;;;;;;5097675;28;20851;-64
2022/10/15 01:02:44;;;;;;;2.33;2.13;;;;;;;;;;5084210;28;20198;-64
2022/10/15 01:05:12;;;;;;;3.40;2.10;;;;;;;;;;5097453;28;20751;-64
2022/10/15 01:07:40;;;;;;;2.70;1.90;;;;;;;;;;5097989;28;20210;-64
2022/10/15 01:10:10;;;;;;;4.20;1.83;;;;;;;;;;5097507;28;20233;-64
2022/10/15 01:12:42;;;;;;;3.20;2.17;;;;;;;;;;5097406;28;20225;-64
2022/10/15 01:15:15;;;;;;;3.37;2.10;;;;;;;;;;5097490;28;20232;-64
2022/10/15 01:17:46;;;;;;;2.63;1.97;;;;;;;;;;5097475;28;20206;-64
2022/10/15 01:20:32;;;;;;;5.50;2.90;;;;;;;;;;5097757;28;20211;-64
2022/10/15 01:23:08;;;;;;;9.10;4.80;;;;;;;;;;5097386;28;20210;-64
2022/10/15 01:25:42;;;;;;;9.30;6.50;;;;;;;;;;5097694;28;20216;-64
2022/10/15 01:28:16;;;;;;;11.90;9.20;;;;;;;;;;5097713;28;20213;-64
2022/10/15 01:30:47;;;;;;;14.77;10.17;;;;;;;;;;5097403;28;20200;-64
2022/10/15 01:33:33;;;;;;;15.57;9.30;;;;;;;;;;5097084;28;20609;-64
2022/10/15 01:36:07;;;;;;;15.73;8.60;;;;;;;;;;5097627;28;20201;-64
2022/10/15 01:38:40;;;;;;;11.40;8.37;;;;;;;;;;5097722;28;20215;-64
2022/10/15 01:41:10;;;;;;;8.37;5.90;;;;;;;;;;5097387;28;20211;-64
2022/10/15 01:43:41;;;;;;;5.87;4.43;;;;;;;;;;5097208;28;20739;-64
2022/10/15 01:46:14;;;;;;;4.43;3.80;;;;;;;;;;5097657;28;20205;-64
2022/10/15 01:48:43;;;;;;;5.33;3.50;;;;;;;;;;5097252;28;20209;-64
2022/10/15 01:51:12;;;;;;;5.73;2.87;;;;;;;;;;5097504;28;20221;-64
2022/10/15 01:53:40;;;;;;;4.33;2.47;;;;;;;;;;5097006;28;20715;-64
2022/10/15 01:56:09;;;;;;;7.90;3.07;;;;;;;;;;5100894;28;20210;-64
2022/10/15 01:58:38;;;;;;;3.17;2.53;;;;;;;;;;5101352;28;20216;-64
2022/10/15 02:01:06;;;;;;;5.73;2.50;;;;;;;;;;5101224;28;20213;-64
2022/10/15 02:03:44;;;;;;;4.10;2.43;;;;;;;;;;5100858;28;20221;-64
2022/10/15 02:06:14;;;;;;;4.13;3.07;;;;;;;;;;5100917;28;20205;-64
2022/10/15 02:08:45;;;;;;;4.57;2.93;;;;;;;;;;5101270;28;20199;-64
2022/10/15 02:11:14;;;;;;;5.20;2.50;;;;;;;;;;5100712;28;20666;-64
2022/10/15 02:13:47;;;;;;;4.23;2.77;;;;;;;;;;5100801;28;20225;-64
2022/10/15 02:16:20;;;;;;;4.50;2.80;;;;;;;;;;5100898;28;20209;-64
2022/10/15 02:18:52;;;;;;;4.50;2.80;;;;;;;;;;5100689;28;20209;-64
2022/10/15 02:21:21;;;;;;;5.90;2.57;;;;;;;;;;5100920;28;20206;-64
2022/10/15 02:23:52;;;;;;;2.67;2.23;;;;;;;;;;5100696;28;20218;-64
2022/10/15 02:26:21;;;;;;;3.07;2.30;;;;;;;;;;5100631;28;20210;-64
2022/10/15 02:28:53;;;;;;;2.57;2.10;;;;;;;;;;5100537;28;20206;-64
2022/10/15 02:31:21;;;;;;;2.53;2.30;;;;;;;;;;5100355;28;20215;-64
2022/10/15 02:33:52;;;;;;;4.23;3.07;;;;;;;;;;5100360;28;20234;-64
2022/10/15 02:36:20;;;;;;;3.30;2.47;;;;;;;;;;5100265;28;20210;-64
2022/10/15 02:38:48;;;;;;;6.27;2.43;;;;;;;;;;5100668;28;20213;-64
2022/10/15 02:41:16;;;;;;;6.00;2.70;;;;;;;;;;5099931;28;20209;-64
2022/10/15 02:43:44;;;;;;;5.23;2.20;;;;;;;;;;5100323;28;20222;-64
2022/10/15 02:46:14;;;;;;;3.90;2.23;;;;;;;;;;5100075;28;20209;-64
2022/10/15 02:48:42;;;;;;;3.23;2.33;;;;;;;;;;5100094;28;20209;-64
2022/10/15 02:51:11;;;;;;;6.20;2.60;;;;;;;;;;5100240;28;20213;-64
2022/10/15 02:53:39;;;;;;;3.60;2.93;;;;;;;;;;5099809;28;20233;-64
2022/10/15 02:56:07;;;;;;;3.67;2.13;;;;;;;;;;5099996;28;20216;-64
2022/10/15 02:58:35;;;;;;;7.93;2.17;;;;;;;;;;5095281;28;20285;-64
2022/10/15 03:01:04;;;;;;;4.13;2.23;;;;;;;;;;5087859;28;20205;-64
2022/10/15 03:03:32;;;;;;;5.30;2.40;;;;;;;;;;5099431;28;20244;-63
2022/10/15 03:06:00;;;;;;;2.90;2.20;;;;;;;;;;5099238;28;20665;-64
2022/10/15 03:08:29;;;;;;;2.33;2.13;;;;;;;;;;5099283;28;20225;-64
2022/10/15 03:10:59;;;;;;;4.00;2.73;;;;;;;;;;5099852;28;20209;-64
2022/10/15 03:13:27;;;;;;;11.33;5.07;;;;;;;;;;5099532;28;20226;-64
2022/10/15 03:15:55;;;;;;;6.80;5.23;;;;;;;;;;5099441;28;20205;-64
2022/10/15 03:18:23;;;;;;;4.33;3.93;;;;;;;;;;5099230;28;20201;-64
2022/10/15 03:20:54;;;;;;;5.43;3.83;;;;;;;;;;5099292;28;20213;-64
2022/10/15 03:23:22;;;;;;;5.63;4.03;;;;;;;;;;5099361;28;20221;-64
2022/10/15 03:25:53;;;;;;;8.50;3.00;;;;;;;;;;5099130;28;20579;-64
2022/10/15 03:28:21;;;;;;;6.67;3.00;;;;;;;;;;5099328;28;20584;-64
2022/10/15 03:30:49;;;;;;;4.03;3.30;;;;;;;;;;5099431;28;20232;-64
2022/10/15 03:33:17;;;;;;;3.90;3.33;;;;;;;;;;5098817;28;20723;-64
2022/10/15 03:35:48;;;;;;;4.67;2.60;;;;;;;;;;5098211;28;20229;-64
2022/10/15 03:38:16;;;;;;;4.50;3.10;;;;;;;;;;5099165;28;20217;-63
2022/10/15 03:40:45;;;;;;;6.87;3.73;;;;;;;;;;5098583;28;20576;-64
2022/10/15 03:43:14;;;;;;;4.37;3.93;;;;;;;;;;5099087;28;20281;-64
2022/10/15 03:45:42;;;;;;;4.03;3.00;;;;;;;;;;5099166;28;20198;-64
2022/10/15 03:48:10;;;;;;;4.23;3.20;;;;;;;;;;5098529;28;20198;-64
2022/10/15 03:50:38;;;;;;;4.20;3.13;;;;;;;;;;5099019;28;20209;-64
2022/10/15 03:53:06;;;;;;;4.73;3.00;;;;;;;;;;5098375;28;20231;-63
2022/10/15 03:55:34;;;;;;;4.07;2.80;;;;;;;;;;5098802;28;20229;-64
2022/10/15 03:58:02;;;;;;;4.57;2.80;;;;;;;;;;5098518;28;20672;-64
2022/10/15 04:00:31;;;;;;;2.83;2.57;;;;;;;;;;5098862;28;20208;-62
2022/10/15 04:02:59;;;;;;;4.03;2.80;;;;;;;;;;5098087;28;20214;-62
2022/10/15 04:05:27;;;;;;;4.97;2.70;;;;;;;;;;5098801;28;20214;-62
2022/10/15 04:07:56;;;;;;;4.00;2.83;;;;;;;;;;5098675;28;20201;-63
2022/10/15 04:10:25;;;;;;;5.13;2.90;;;;;;;;;;5095231;28;20541;-64
2022/10/15 04:12:53;;;;;;;4.93;2.40;;;;;;;;;;5094976;28;20205;-64
2022/10/15 04:15:21;;;;;;;6.30;2.73;;;;;;;;;;5096343;28;20225;-64
2022/10/15 04:17:53;;;;;;;2.50;2.30;;;;;;;;;;5095157;28;20541;-64
2022/10/15 04:20:21;;;;;;;5.90;2.40;;;;;;;;;;5092791;28;20561;-64
2022/10/15 04:22:49;;;;;;;6.70;3.63;;;;;;;;;;5097872;28;20211;-64
2022/10/15 04:25:17;;;;;;;5.43;2.43;;;;;;;;;;5092403;28;20218;-64
2022/10/15 04:27:45;;;;;;;4.03;2.40;;;;;;;;;;5097640;28;20202;-63
2022/10/15 04:30:14;;;;;;;5.17;2.70;;;;;;;;;;5094778;28;20204;-63
2022/10/15 04:32:42;;;;;;;2.60;2.40;;;;;;;;;;5094664;28;20219;-64
2022/10/15 04:35:11;;;;;;;4.20;2.67;;;;;;;;;;5097579;28;20232;-64
2022/10/15 04:37:39;;;;;;;5.00;2.57;;;;;;;;;;5095218;28;20668;-65
2022/10/15 04:40:08;;;;;;;3.30;2.33;;;;;;;;;;5094777;28;20200;-62
2022/10/15 04:42:36;;;;;;;4.13;2.30;;;;;;;;;;5097067;28;20563;-63
2022/10/15 04:45:05;;;;;;;3.03;2.10;;;;;;;;;;5094627;28;20210;-62
2022/10/15 04:47:33;;;;;;;3.53;2.07;;;;;;;;;;5096607;28;20547;-64
2022/10/15 04:50:01;;;;;;;2.30;2.10;;;;;;;;;;5094905;28;20629;-63
2022/10/15 04:52:30;;;;;;;6.73;2.70;;;;;;;;;;5094450;28;20206;-63
2022/10/15 04:54:58;;;;;;;4.20;2.23;;;;;;;;;;5092648;28;20225;-63
2022/10/15 04:57:26;;;;;;;2.67;2.10;;;;;;;;;;5096637;28;20205;-63
2022/10/15 04:59:54;;;;;;;5.03;2.57;;;;;;;;;;5094996;28;20209;-62
2022/10/15 05:02:24;;;;;;;3.10;2.17;;;;;;;;;;5088630;28;20233;-62
2022/10/15 05:04:52;;;;;;;4.33;2.93;;;;;;;;;;5097140;28;20626;-64
2022/10/15 05:07:20;;;;;;;5.23;2.37;;;;;;;;;;5094669;28;20193;-63
2022/10/15 05:09:50;;;;;;;4.33;2.20;;;;;;;;;;5097713;28;20618;-63
2022/10/15 05:12:19;;;;;;;3.50;1.90;;;;;;;;;;5097407;28;20209;-64
2022/10/15 05:14:47;;;;;;;3.47;2.37;;;;;;;;;;5094315;28;20225;-62
2022/10/15 05:17:15;;;;;;;2.50;2.20;;;;;;;;;;5096166;28;20571;-64
2022/10/15 05:19:43;;;;;;;2.60;2.40;;;;;;;;;;5093920;28;20209;-64
2022/10/15 05:22:11;;;;;;;2.73;2.07;;;;;;;;;;5092766;28;20198;-62
2022/10/15 05:24:39;;;;;;;3.57;2.27;;;;;;;;;;5093530;28;20268;-63
2022/10/15 05:27:08;;;;;;;2.77;2.43;;;;;;;;;;5096935;28;20202;-64
2022/10/15 05:29:37;;;;;;;3.73;2.60;;;;;;;;;;5100682;28;20205;-64
2022/10/15 05:32:05;;;;;;;2.40;2.00;;;;;;;;;;5101511;28;20211;-63
2022/10/15 05:34:33;;;;;;;2.53;2.13;;;;;;;;;;5101603;28;20267;-62
2022/10/15 05:37:00;;;;;;;3.07;2.17;;;;;;;;;;5101479;28;20205;-61
2022/10/15 05:39:28;;;;;;;3.07;2.27;;;;;;;;;;5101599;28;20206;-62
2022/10/15 05:41:56;;;;;;;2.37;2.17;;;;;;;;;;5101289;28;20237;-62
2022/10/15 05:44:26;;;;;;;2.83;2.30;;;;;;;;;;5101482;28;20220;-62
2022/10/15 05:46:54;;;;;;;6.97;2.67;;;;;;;;;;5101252;28;20205;-62
2022/10/15 05:49:22;;;;;;;4.43;2.30;;;;;;;;;;5101670;28;20287;-63
2022/10/15 05:51:49;;;;;;;3.87;2.60;;;;;;;;;;5101443;28;20209;-62
2022/10/15 05:54:18;;;;;;;4.17;2.43;;;;;;;;;;5100766;28;20362;-62
2022/10/15 05:56:45;;;;;;;3.30;2.60;;;;;;;;;;5101345;28;20205;-62
2022/10/15 05:59:13;;;;;;;3.70;2.63;;;;;;;;;;5101018;28;20320;-61
2022/10/15 06:01:43;;;;;;;6.50;2.60;;;;;;;;;;5100760;28;20205;-62
2022/10/15 06:04:11;;;;;;;3.27;2.53;;;;;;;;;;5101042;28;20226;-62
2022/10/15 06:06:39;;;;;;;3.80;2.63;;;;;;;;;;5101088;28;20201;-62
2022/10/15 06:09:07;;;;;;;6.73;2.87;;;;;;;;;;5100761;28;20583;-63
2022/10/15 06:11:36;;;;;;;3.70;2.47;;;;;;;;;;5100682;28;20221;-64
2022/10/15 06:14:04;;;;;;;3.23;2.40;;;;;;;;;;5100818;28;20248;-63
2022/10/15 06:16:32;;;;;;;3.83;2.87;;;;;;;;;;5100467;28;20236;-63
2022/10/15 06:19:01;;;;;;;6.57;2.77;;;;;;;;;;5087468;28;20684;-64
2022/10/15 06:21:30;;;;;;;5.83;2.77;;;;;;;;;;5100966;28;20206;-63
2022/10/15 06:23:58;;;;;;;3.03;2.23;;;;;;;;;;5100775;28;20645;-63
2022/10/15 06:26:26;;;;;;;3.20;2.90;;;;;;;;;;5100581;28;20217;-64
2022/10/15 06:28:54;;;;;;;4.70;2.80;;;;;;;;;;5100485;28;20209;-63
2022/10/15 06:31:22;;;;;;;6.47;3.53;;;;;;;;;;5100026;28;20213;-63
2022/10/15 06:33:50;;;;;;;11.67;4.73;;;;;;;;;;5100119;28;20780;-63
2022/10/15 06:36:20;;;;;;;9.27;4.47;;;;;;;;;;5100361;28;20232;-64
2022/10/15 06:38:48;;;;;;;9.43;5.07;;;;;;;;;;5099851;28;20682;-63
2022/10/15 06:41:16;;;;;;;8.03;4.00;;;;;;;;;;5098653;28;20216;-64
2022/10/15 06:43:45;;;;;;;6.87;3.53;;;;;;;;;;5100073;28;20236;-64
2022/10/15 06:46:13;;;;;;;5.70;3.50;;;;;;;;;;5100346;28;20232;-63
2022/10/15 06:48:41;;;;;;;8.87;3.73;;;;;;;;;;5099953;28;20220;-63
2022/10/15 06:51:08;;;;;;;3.20;2.87;;;;;;;;;;5100400;28;20205;-65
2022/10/15 06:53:41;;;;;;;4.50;2.73;;;;;;;;;;5099864;28;20242;-65
2022/10/15 06:56:08;;;;;;;4.60;2.20;;;;;;;;;;5099995;28;20232;-63
2022/10/15 06:58:36;;;;;;;2.90;2.37;;;;;;;;;;5099954;28;20211;-63
2022/10/15 07:01:05;;;;;;;4.33;2.40;;;;;;;;;;5100010;28;20209;-63
2022/10/15 07:03:34;;;;;;;5.87;2.17;;;;;;;;;;5099573;28;20221;-62
2022/10/15 07:06:03;;;;;;;3.63;2.70;;;;;;;;;;5100099;28;20205;-63
2022/10/15 07:08:31;;;;;;;4.20;2.30;;;;;;;;;;5096684;28;20202;-63
2022/10/15 07:11:02;;;;;;;3.20;2.40;;;;;;;;;;5098859;28;20545;-63
2022/10/15 07:13:30;;;;;;;5.53;2.10;;;;;;;;;;5099575;28;20241;-65
2022/10/15 07:15:58;;;;;;;6.47;3.73;;;;;;;;;;5099056;28;20221;-65
2022/10/15 07:18:26;;;;;;;3.83;2.93;;;;;;;;;;5099312;28;20206;-64
2022/10/15 07:20:56;;;;;;;3.87;2.13;;;;;;;;;;5099684;28;20201;-64
2022/10/15 07:23:24;;;;;;;3.77;2.33;;;;;;;;;;5086031;28;20225;-65
2022/10/15 07:25:54;;;;;;;3.47;2.73;;;;;;;;;;5099156;28;20265;-63
2022/10/15 07:28:24;;;;;;;2.40;2.20;;;;;;;;;;5099073;28;20227;-64
2022/10/15 07:30:52;;;;;;;7.03;2.37;;;;;;;;;;5099217;28;20210;-63
2022/10/15 07:33:20;;;;;;;4.23;2.37;;;;;;;;;;5098776;28;20230;-63
2022/10/15 07:35:48;;;;;;;3.17;2.50;;;;;;;;;;5099159;28;20229;-63
2022/10/15 07:38:16;;;;;;;4.07;2.77;;;;;;;;;;5097974;28;20207;-63
2022/10/15 07:40:45;;;;;;;3.80;2.83;;;;;;;;;;5096956;28;20222;-65
2022/10/15 07:43:13;;;;;;;4.63;3.47;;;;;;;;;;5096979;28;20217;-64
2022/10/15 07:45:43;;;;;;;5.83;2.70;;;;;;;;;;5097236;28;20212;-65
2022/10/15 07:48:11;;;;;;;10.50;4.60;;;;;;;;;;5096807;28;20539;-64
2022/10/15 07:50:39;;;;;;;6.57;3.73;;;;;;;;;;5096836;28;20665;-64
2022/10/15 07:53:09;;;;;;;3.87;2.70;;;;;;;;;;5097506;28;20271;-64
2022/10/15 07:55:37;;;;;;;4.73;2.30;;;;;;;;;;5098597;28;20252;-65
2022/10/15 07:58:07;;;;;;;4.47;2.23;;;;;;;;;;5099020;28;20227;-64
2022/10/15 08:00:35;;;;;;;3.37;2.60;;;;;;;;;;5098819;28;20292;-64
2022/10/15 08:03:04;;;;;;;3.63;2.80;;;;;;;;;;5098480;28;20209;-65
2022/10/15 08:05:33;;;;;;;4.90;2.40;;;;;;;;;;5099003;28;20201;-64
2022/10/15 08:08:00;;;;;;;2.63;2.07;;;;;;;;;;5098654;28;20216;-65
2022/10/15 08:10:28;;;;;;;2.53;2.27;;;;;;;;;;5098806;28;20205;-65
2022/10/15 08:12:56;;;;;;;6.10;2.40;;;;;;;;;;5098743;28;20648;-65
2022/10/15 08:15:24;;;;;;;3.87;2.30;;;;;;;;;;5098806;28;20216;-65
2022/10/15 08:17:52;;;;;;;4.00;2.50;;;;;;;;;;5098254;28;20311;-64
2022/10/15 08:20:22;;;;;;;5.13;2.83;;;;;;;;;;5098427;28;20209;-65
2022/10/15 08:22:49;;;;;;;3.03;2.60;;;;;;;;;;5098419;28;20202;-65
2022/10/15 08:25:17;;;;;;;4.10;2.10;;;;;;;;;;5098339;28;20700;-64
2022/10/15 08:27:45;;;;;;;6.47;2.80;;;;;;;;;;5098571;28;20205;-64
2022/10/15 08:30:13;;;;;;;2.87;1.70;;;;;;;;;;5098110;28;20209;-64
2022/10/15 08:32:41;;;;;;;3.37;1.83;;;;;;;;;;5098160;28;20218;-64
2022/10/15 08:35:09;;;;;;;1.40;1.30;;;;;;;;;;5098570;28;20232;-63
2022/10/15 08:37:38;;;;;;;1.37;1.27;;;;;;;;;;5097997;28;20312;-63
2022/10/15 08:40:07;;;;;;;2.10;0.93;;;;;;;;;;5097939;28;20209;-63
2022/10/15 08:42:37;;;;;;;3.47;0.87;;;;;;;;;;5097735;28;20548;-64
2022/10/15 08:45:06;;;;;;;2.23;1.03;;;;;;;;;;5098141;28;20228;-63
2022/10/15 08:47:36;;;;;;;2.53;1.50;;;;;;;;;;5097884;28;20217;-63
2022/10/15 08:50:12;;;;;;;1.63;1.47;;;;;;;;;;5097928;28;20695;-64
2022/10/15 08:52:43;;;;;;;1.73;1.63;;;;;;;;;;5098087;28;20237;-65
2022/10/15 08:55:12;;;;;;;2.87;1.50;;;;;;;;;;5097925;28;20248;-64
2022/10/15 08:57:43;;;;;;;1.67;1.40;;;;;;;;;;5097799;28;20588;-64
2022/10/15 09:00:13;;;;;;;3.40;1.53;;;;;;;;;;5098324;28;20209;-64
2022/10/15 09:02:45;;;;;;;2.77;1.30;;;;;;;;;;5097556;28;20210;-65
2022/10/15 09:05:26;;;;;;;6.03;1.53;;;;;;;;;;5097751;28;20232;-65
2022/10/15 09:08:00;;;;;;;2.73;1.30;;;;;;;;;;5097653;28;20193;-64
2022/10/15 09:10:31;;;;;;;2.03;1.73;;;;;;;;;;5097727;28;20201;-64
2022/10/15 09:13:01;;;;;;;1.67;1.20;;;;;;;;;;5097727;28;20207;-63
2022/10/15 09:15:32;;;;;;;3.60;1.60;;;;;;;;;;5097692;28;20565;-63
2022/10/15 09:18:00;;;;;;;1.87;1.27;;;;;;;;;;5097662;28;20225;-63
2022/10/15 09:20:30;;;;;;;1.63;1.33;;;;;;;;;;5097522;28;20570;-63
2022/10/15 09:23:00;;;;;;;1.50;1.40;;;;;;;;;;5097790;28;20206;-63
2022/10/15 09:25:32;;;;;;;1.50;1.40;;;;;;;;;;5097415;28;20572;-63
2022/10/15 09:28:01;;;;;;;3.30;1.30;;;;;;;;;;5097578;28;20201;-63
2022/10/15 09:30:34;;;;;;;7.77;2.37;;;;;;;;;;5097397;28;20669;-65
2022/10/15 09:33:05;;;;;;;3.23;1.13;;;;;;;;;;5096973;28;20205;-64
2022/10/15 09:35:35;;;;;;;2.03;1.30;;;;;;;;;;5097607;28;20209;-64
2022/10/15 09:38:13;;;;;;;2.53;1.47;;;;;;;;;;5097481;28;20366;-64
2022/10/15 09:40:46;;;;;;;1.57;1.20;;;;;;;;;;5097287;28;20205;-65
2022/10/15 09:43:15;;;;;;;2.50;1.27;;;;;;;;;;5097499;28;20214;-64
2022/10/15 09:45:43;;;;;;;1.43;1.17;;;;;;;;;;5097268;28;20675;-64
2022/10/15 09:48:14;;;;;;;1.30;1.10;;;;;;;;;;5097206;28;20200;-63
2022/10/15 09:50:44;;;;;;;1.13;1.00;;;;;;;;;;5097176;28;20205;-62
2022/10/15 09:53:17;;;;;;;1.73;1.30;;;;;;;;;;5097002;28;20720;-63
2022/10/15 09:55:48;;;;;;;1.27;1.00;;;;;;;;;;5097268;28;20205;-63
2022/10/15 09:58:18;;;;;;;1.90;1.17;;;;;;;;;;5097371;28;20229;-64
2022/10/15 10:00:54;;;;;;;3.10;1.00;;;;;;;;;;5097456;28;20217;-63
2022/10/15 10:03:23;;;;;;;1.57;1.07;;;;;;;;;;5097042;28;20228;-63
2022/10/15 10:05:51;;;;;;;2.00;1.27;;;;;;;;;;5097303;28;20206;-64
2022/10/15 10:08:21;;;;;;;3.53;1.17;;;;;;;;;;5096952;28;20276;-63
2022/10/15 10:10:54;;;;;;;1.17;1.07;;;;;;;;;;5096859;28;20306;-63
2022/10/15 10:13:24;;;;;;;1.70;1.07;;;;;;;;;;5096773;28;20258;-62
2022/10/15 10:15:53;;;;;;;1.00;1.00;;;;;;;;;;5098662;28;20214;-63
2022/10/15 10:18:26;;;;;;;2.83;1.00;;;;;;;;;;5100501;28;20231;-62
2022/10/15 10:20:57;;;;;;;2.73;1.10;;;;;;;;;;5100526;28;20210;-63
2022/10/15 10:23:30;;;;;;;4.10;1.40;;;;;;;;;;5100600;28;20226;-63
2022/10/15 10:25:58;;;;;;;1.80;1.20;;;;;;;;;;5100309;28;20209;-63
2022/10/15 10:28:28;;;;;;;1.07;1.00;;;;;;;;;;5100659;28;20212;-63
2022/10/15 10:31:02;;;;;;;1.43;1.00;;;;;;;;;;5100625;28;20222;-63
2022/10/15 10:33:32;;;;;;;2.33;1.30;;;;;;;;;;5100504;28;20235;-64
2022/10/15 10:36:00;;;;;;;3.80;2.90;;;;;;;;;;5100531;28;20214;-63
2022/10/15 10:38:32;;;;;;;2.40;1.40;;;;;;;;;;5100111;28;20233;-63
2022/10/15 10:41:04;;;;;;;2.47;1.27;;;;;;;;;;5100169;28;20205;-62
2022/10/15 10:43:32;;;;;;;1.30;1.20;;;;;;;;;;5100373;28;20236;-65
2022/10/15 10:46:16;;;;;;;4.07;1.33;;;;;;;;;;5100110;28;20231;-64
2022/10/15 10:48:45;;;;;;;2.73;1.10;;;;;;;;;;5099829;28;20644;-63
2022/10/15 10:51:14;;;;;;;1.10;1.00;;;;;;;;;;5099942;28;20205;-64
2022/10/15 10:53:52;;;;;;;2.90;1.03;;;;;;;;;;5100097;28;20649;-63
2022/10/15 10:56:22;;;;;;;0.63;0.63;;;;;;;;;;5099928;28;20566;-63
2022/10/15 10:58:56;;;;;;;3.57;1.03;;;;;;;;;;5100068;28;20244;-64
2022/10/15 11:01:23;;;;;;;1.70;0.90;;;;;;;;;;5099833;28;20206;-62
2022/10/15 11:03:51;;;;;;;1.13;0.90;;;;;;;;;;5099879;28;20231;-63
2022/10/15 11:06:37;;;;;;;1.40;1.20;;;;;;;;;;5099946;28;20273;-62
2022/10/15 11:09:11;;;;;;;1.10;1.00;;;;;;;;;;5099050;28;20190;-62
2022/10/15 11:11:45;;;;;;;1.53;1.20;;;;;;;;;;5096947;28;20205;-62
2022/10/15 11:14:19;;;;;;;1.20;1.10;;;;;;;;;;5096065;28;20223;-64
2022/10/15 11:16:49;;;;;;;3.70;2.13;;;;;;;;;;5094982;28;20797;-63
2022/10/15 11:19:22;;;;;;;1.20;1.10;;;;;;;;;;5093209;28;20248;-62
2022/10/15 11:22:36;;;;;;;4.03;0.90;;;;;;;;;;5095098;28;20256;-62
2022/10/15 11:25:09;;;;;;;2.37;1.00;;;;;;;;;;5094068;28;20213;-63
2022/10/15 11:27:41;;;;;;;0.80;0.80;;;;;;;;;;5095288;28;20197;-64
2022/10/15 11:30:15;;;;;;;1.30;1.00;;;;;;;;;;5094392;28;20609;-63
2022/10/15 11:32:48;;;;;;;3.97;1.47;;;;;;;;;;5097799;28;20213;-64
2022/10/15 11:35:40;;;;;;;3.47;1.20;;;;;;;;;;5093663;28;20199;-63
2022/10/15 11:38:25;;;;;;;2.53;1.00;;;;;;;;;;5095013;28;20234;-65
2022/10/15 11:41:03;;;;;;;3.27;1.77;;;;;;;;;;5095618;28;20676;-65
2022/10/15 11:43:39;;;;;;;1.53;1.40;;;;;;;;;;5095624;28;20694;-64
2022/10/15 11:46:14;;;;;;;2.77;2.50;;;;;;;;;;5094344;28;20202;-64
2022/10/15 11:48:50;;;;;;;1.83;1.27;;;;;;;;;;5093694;28;20203;-65
2022/10/15 11:51:22;;;;;;;1.40;1.30;;;;;;;;;;5095988;28;20202;-65
2022/10/15 11:54:14;;;;;;;1.20;1.10;;;;;;;;;;5097879;28;20244;-64
2022/10/15 11:56:45;;;;;;;2.23;0.83;;;;;;;;;;5083466;28;20222;-64
2022/10/15 11:59:18;;;;;;;4.67;1.10;;;;;;;;;;5098359;28;20245;-62
2022/10/15 12:01:48;;;;;;;0.80;0.80;;;;;;;;;;5098246;28;20575;-64
2022/10/15 12:04:19;;;;;;;1.63;1.10;;;;;;;;;;5099369;28;20232;-61
2022/10/15 12:06:49;;;;;;;1.07;0.93;;;;;;;;;;5098523;28;20220;-63
2022/10/15 12:09:20;;;;;;;0.93;0.90;;;;;;;;;;5098790;28;20207;-63
2022/10/15 12:11:51;;;;;;;1.20;1.10;;;;;;;;;;5098354;28;20284;-64
2022/10/15 12:14:22;;;;;;;0.80;0.80;;;;;;;;;;5098385;28;20234;-64
2022/10/15 12:16:56;;;;;;;1.27;1.03;;;;;;;;;;5097585;28;20220;-63
2022/10/15 12:19:26;;;;;;;1.30;0.80;;;;;;;;;;5097109;28;20219;-62
2022/10/15 12:22:05;;;;;;;1.67;0.83;;;;;;;;;;5098204;28;20211;-63
2022/10/15 12:24:51;;;;;;;1.37;1.10;;;;;;;;;;5097601;28;20600;-65
2022/10/15 12:27:28;;;;;;;1.40;1.30;;;;;;;;;;5097899;28;20208;-65
2022/10/15 12:30:26;;;;;;;1.47;0.80;;;;;;;;;;5096930;28;20217;-65
2022/10/15 12:32:54;;;;;;;1.33;1.13;;;;;;;;;;5035484;28;20604;-65
2022/10/15 12:35:24;;;;;;;1.17;1.00;;;;;;;;;;5084064;28;20242;-64
2022/10/15 12:37:52;;;;;;;2.30;1.00;;;;;;;;;;5097472;28;20213;-64
2022/10/15 12:40:26;;;;;;;0.80;0.80;;;;;;;;;;5098021;28;20208;-65
2022/10/15 12:42:57;;;;;;;1.67;1.00;;;;;;;;;;5097919;28;20209;-66
2022/10/15 12:45:27;;;;;;;1.00;0.90;;;;;;;;;;5098270;28;20206;-65
2022/10/15 12:47:56;;;;;;;1.50;0.90;;;;;;;;;;5097739;28;20215;-63
2022/10/15 12:50:25;;;;;;;0.77;0.57;;;;;;;;;;5098064;28;20215;-64
2022/10/15 12:52:58;;;;;;;1.10;0.70;;;;;;;;;;5097518;28;20247;-64
2022/10/15 12:55:30;;;;;;;3.70;0.70;;;;;;;;;;5097539;28;20208;-64
2022/10/15 12:58:01;;;;;;;0.63;0.63;;;;;;;;;;5097622;28;20211;-64
2022/10/15 13:00:39;;;;;;;1.17;0.70;;;;;;;;;;5097718;28;20207;-64
2022/10/15 13:03:19;;;;;;;3.20;1.47;;;;;;;;;;5097338;28;20205;-63
2022/10/15 13:05:46;;;;;;;0.60;0.60;;;;;;;;;;5097711;28;20208;-64
2022/10/15 13:08:23;;;;;;;0.70;0.70;;;;;;;;;;5097885;28;20195;-63
2022/10/15 13:10:52;;;;;;;0.63;0.63;;;;;;;;;;5097630;28;20213;-64
2022/10/15 13:13:24;;;;;;;5.30;1.60;;;;;;;;;;5097460;28;20607;-63
2022/10/15 13:15:55;;;;;;;3.37;1.23;;;;;;;;;;5097550;28;20212;-64
2022/10/15 13:18:24;;;;;;;5.53;1.63;;;;;;;;;;5097172;28;20260;-64
2022/10/15 13:20:55;;;;;;;0.97;0.73;;;;;;;;;;5097269;28;20206;-64
2022/10/15 13:23:26;;;;;;;1.40;1.17;;;;;;;;;;5097452;28;20233;-64
2022/10/15 13:26:11;;;;;;;1.73;1.20;;;;;;;;;;5097304;28;20242;-64
2022/10/15 13:28:41;;;;;;;1.50;1.20;;;;;;;;;;5097380;28;20210;-64
2022/10/15 13:31:14;;;;;;;0.80;0.80;;;;;;;;;;5097459;28;20205;-64
2022/10/15 13:33:43;;;;;;;3.43;1.00;;;;;;;;;;5097936;28;20240;-64
2022/10/15 13:36:17;;;;;;;1.27;0.80;;;;;;;;;;5097820;28;20208;-64
2022/10/15 13:38:51;;;;;;;1.73;1.00;;;;;;;;;;5097749;28;20220;-64
2022/10/15 13:41:22;;;;;;;2.17;0.90;;;;;;;;;;5097474;28;20215;-64
2022/10/15 13:43:57;;;;;;;1.30;0.80;;;;;;;;;;5097371;28;20723;-64
2022/10/15 13:46:25;;;;;;;1.10;1.00;;;;;;;;;;5097234;28;20606;-64
2022/10/15 13:48:57;;;;;;;1.03;0.93;;;;;;;;;;5098002;28;20202;-63
2022/10/15 13:51:28;;;;;;;2.07;0.87;;;;;;;;;;5101311;28;20565;-63
2022/10/15 13:53:57;;;;;;;4.50;1.13;;;;;;;;;;5100959;28;20608;-64
2022/10/15 13:56:25;;;;;;;1.73;1.10;;;;;;;;;;5101205;28;20213;-64
2022/10/15 13:58:56;;;;;;;2.60;0.87;;;;;;;;;;5100857;28;20223;-64
2022/10/15 14:01:25;;;;;;;0.80;0.80;;;;;;;;;;5101197;28;20207;-64
2022/10/15 14:03:53;;;;;;;1.40;1.30;;;;;;;;;;5100866;28;20228;-64
2022/10/15 14:06:22;;;;;;;3.80;0.90;;;;;;;;;;5100880;28;20225;-64
2022/10/15 14:08:51;;;;;;;1.00;0.90;;;;;;;;;;5100881;28;20207;-64
2022/10/15 14:11:19;;;;;;;1.70;1.10;;;;;;;;;;5100912;28;20232;-63
2022/10/15 14:13:48;;;;;;;2.13;1.07;;;;;;;;;;5100783;28;20225;-63
2022/10/15 14:16:20;;;;;;;0.83;0.83;;;;;;;;;;5100595;28;20213;-64
2022/10/15 14:18:49;;;;;;;0.73;0.73;;;;;;;;;;5100626;28;20206;-64
2022/10/15 14:21:17;;;;;;;1.23;0.80;;;;;;;;;;5100834;28;20218;-64
2022/10/15 14:23:46;;;;;;;1.47;0.87;;;;;;;;;;5100762;28;20227;-64
2022/10/15 14:26:15;;;;;;;1.20;0.80;;;;;;;;;;5100443;28;20680;-64
2022/10/15 14:28:50;;;;;;;0.80;0.80;;;;;;;;;;5100440;28;20233;-64
2022/10/15 14:31:33;;;;;;;0.83;0.73;;;;;;;;;;5100322;28;20272;-64
2022/10/15 14:34:02;;;;;;;1.20;1.07;;;;;;;;;;5100542;28;20230;-64
2022/10/15 14:36:30;;;;;;;2.33;0.90;;;;;;;;;;5100617;28;20206;-64
2022/10/15 14:39:13;;;;;;;1.33;1.07;;;;;;;;;;5100052;28;20581;-64
2022/10/15 14:41:54;;;;;;;2.57;1.07;;;;;;;;;;5099767;28;20585;-64
2022/10/15 14:44:22;;;;;;;1.40;0.80;;;;;;;;;;5099833;28;20223;-63
2022/10/15 14:46:53;;;;;;;1.00;1.00;;;;;;;;;;5100113;28;20216;-64
2022/10/15 14:49:22;;;;;;;0.77;0.77;;;;;;;;;;5100019;28;20225;-63
2022/10/15 14:51:55;;;;;;;1.13;0.80;;;;;;;;;;5100053;28;20223;-64
2022/10/15 14:54:28;;;;;;;1.50;0.80;;;;;;;;;;5100084;28;20246;-63
2022/10/15 14:56:56;;;;;;;0.80;0.80;;;;;;;;;;5100283;28;20211;-64
2022/10/15 14:59:28;;;;;;;0.77;0.77;;;;;;;;;;5099918;28;20585;-64
2022/10/15 15:01:59;;;;;;;7.03;1.00;;;;;;;;;;5099236;28;20298;-64